Terminal Aerodrome Forecast
Issued by NWS Wilmington, OH

Current Version | Previous Version | Graphics & Text | Print | Product List | Glossary On
Versions: 1 2 3 4 5 6 7 8 9 10 11 12 13 14 15
000
FTUS41 KILN 052341
TAFDAY
TAF
KDAY 052341Z 0600/0624 11006KT P6SM BKN250
     FM060400 09009KT P6SM BKN120
     FM061100 09010KT P6SM -RA SCT008 OVC025
     FM061400 09009KT 4SM -RA BR OVC008
     FM062000 30012KT P6SM OVC012=

USA.gov is the U.S. government's official web portal to all federal, state and local government web resources and services.